Time;durP1;ratioP1;P1;durP2;ratioP2;P2;SDS_P1;SDS_P2;PMS_P1;PMS_P2;Temp;Humidity;BMP_temperature;BMP_pressure;BME280_temperature;BME280_humidity;BME280_pressure;Samples;Min_cycle;Max_cycle;Signal;HPM_P1;HPM_P2
2023/09/12 00:26:30;;;;;;;37.72;28.75;;;;;;;19.51;100.00;101297.09;4922367;29;20048;-77
2023/09/12 00:28:58;;;;;;;32.47;26.75;;;;;;;19.52;100.00;101291.72;4928401;29;20430;-77
2023/09/12 00:31:26;;;;;;;38.85;27.73;;;;;;;19.52;100.00;101278.34;4929845;29;20467;-76
2023/09/12 00:33:53;;;;;;;37.20;27.45;;;;;;;19.51;100.00;101271.28;4913741;29;20056;-76
2023/09/12 00:36:21;;;;;;;34.13;26.20;;;;;;;19.51;100.00;101262.34;4889119;29;20051;-75
2023/09/12 00:38:48;;;;;;;41.38;27.65;;;;;;;19.52;100.00;101253.44;4956754;28;20426;-76
2023/09/12 00:41:15;;;;;;;35.08;27.45;;;;;;;19.53;100.00;101252.50;4900709;29;20081;-77
2023/09/12 00:43:43;;;;;;;38.15;27.25;;;;;;;19.53;100.00;101257.84;4914087;29;20047;-76
2023/09/12 00:46:10;;;;;;;34.10;25.75;;;;;;;19.54;100.00;101254.25;4911141;29;20475;-77
2023/09/12 00:48:38;;;;;;;35.40;27.45;;;;;;;19.53;100.00;101247.16;4961600;28;20055;-78
2023/09/12 00:51:06;;;;;;;32.85;26.83;;;;;;;19.52;100.00;101246.28;4870195;29;20060;-76
2023/09/12 00:53:34;;;;;;;38.03;26.73;;;;;;;19.51;100.00;101240.97;4914384;29;20063;-76
2023/09/12 00:56:01;;;;;;;33.88;26.77;;;;;;;19.51;100.00;101224.94;4933120;28;20409;-77
2023/09/12 00:58:29;;;;;;;37.63;27.50;;;;;;;19.49;100.00;101217.00;4913733;29;20051;-77
2023/09/12 01:00:57;;;;;;;36.08;26.92;;;;;;;19.48;100.00;101212.53;4944790;29;20060;-76
2023/09/12 01:03:25;;;;;;;39.65;27.85;;;;;;;19.47;100.00;101219.69;4945539;28;20070;-76
2023/09/12 01:05:52;;;;;;;33.28;26.88;;;;;;;19.47;100.00;101227.72;4918742;28;20047;-77
2023/09/12 01:08:20;;;;;;;31.75;25.50;;;;;;;19.47;100.00;101235.72;4931501;29;20035;-77
2023/09/12 01:10:49;;;;;;;38.42;28.73;;;;;;;19.47;100.00;101242.88;4949337;28;20043;-76
2023/09/12 01:13:17;;;;;;;39.55;27.77;;;;;;;19.46;100.00;101241.97;4954989;28;20055;-77
2023/09/12 01:15:44;;;;;;;38.38;28.30;;;;;;;19.46;100.00;101243.78;4949170;28;20047;-77
2023/09/12 01:18:12;;;;;;;39.25;28.50;;;;;;;19.44;100.00;101246.50;4930607;29;20297;-77
2023/09/12 01:20:48;;;;;;;45.55;32.35;;;;;;;19.43;100.00;101255.44;4863388;29;20647;-77
2023/09/12 01:23:36;;;;;;;38.88;27.60;;;;;;;19.40;100.00;101254.66;4914492;29;20434;-77
2023/09/12 01:26:21;;;;;;;38.55;27.77;;;;;;;19.39;100.00;101259.09;4939169;29;20047;-77
2023/09/12 01:28:50;;;;;;;39.55;28.80;;;;;;;19.37;100.00;101250.25;4932344;29;20047;-77
2023/09/12 01:31:19;;;;;;;38.63;27.33;;;;;;;19.38;100.00;101253.81;4947552;28;20047;-77
2023/09/12 01:33:46;;;;;;;34.92;27.75;;;;;;;19.37;100.00;101252.91;4932476;29;20058;-77
2023/09/12 01:36:15;;;;;;;36.97;27.20;;;;;;;19.37;100.00;101254.72;4887767;28;20047;-76
2023/09/12 01:38:43;;;;;;;38.85;28.70;;;;;;;19.35;100.00;101246.75;4932409;29;20425;-77
2023/09/12 01:41:11;;;;;;;46.55;29.88;;;;;;;19.34;100.00;101254.78;4918296;29;20059;-77
2023/09/12 01:43:41;;;;;;;33.47;26.52;;;;;;;19.33;100.00;101259.28;4932612;29;20055;-77
2023/09/12 01:46:08;;;;;;;37.53;28.65;;;;;;;19.32;100.00;101259.31;4945249;29;20035;-77
2023/09/12 01:48:37;;;;;;;40.90;29.80;;;;;;;19.30;100.00;101259.38;4948432;28;20406;-77
2023/09/12 01:51:05;;;;;;;45.72;32.30;;;;;;;19.28;100.00;101250.50;4946462;29;20046;-77
2023/09/12 01:53:34;;;;;;;43.97;31.23;;;;;;;19.25;100.00;101246.13;4897059;28;20047;-77
2023/09/12 01:56:02;;;;;;;49.88;33.67;;;;;;;19.24;100.00;101240.81;4930504;29;20038;-77
2023/09/12 01:58:30;;;;;;;40.22;31.70;;;;;;;19.21;100.00;101248.94;4920617;29;20234;-77
2023/09/12 02:00:58;;;;;;;37.60;30.63;;;;;;;19.19;100.00;101245.41;4930384;28;20537;-77
2023/09/12 02:03:25;;;;;;;43.22;30.80;;;;;;;19.17;100.00;101252.56;4945879;28;20043;-77
2023/09/12 02:05:53;;;;;;;44.63;32.70;;;;;;;19.16;100.00;101246.34;4914426;28;20043;-77
2023/09/12 02:08:20;;;;;;;40.55;31.17;;;;;;;19.14;100.00;101252.66;4901138;28;20051;-77
2023/09/12 02:10:47;;;;;;;42.95;31.27;;;;;;;19.11;100.00;101255.41;4948480;28;20047;-76
2023/09/12 02:13:15;;;;;;;49.53;34.35;;;;;;;19.08;100.00;101254.56;4917888;29;20047;-77
2023/09/12 02:15:42;;;;;;;42.70;29.05;;;;;;;19.08;100.00;101267.06;4931939;28;20043;-77
2023/09/12 02:18:10;;;;;;;51.53;34.22;;;;;;;19.07;100.00;101273.28;4943853;28;20545;-76
2023/09/12 02:20:39;;;;;;;41.53;30.58;;;;;;;19.06;100.00;101279.56;4931651;29;20051;-77
2023/09/12 02:23:06;;;;;;;43.08;31.23;;;;;;;19.04;100.00;101274.25;4882294;29;20506;-77
2023/09/12 02:25:38;;;;;;;49.30;31.50;;;;;;;19.03;100.00;101267.16;4930678;29;20055;-76
2023/09/12 02:28:06;;;;;;;48.10;33.75;;;;;;;19.01;100.00;101263.66;4916716;29;20058;-77
2023/09/12 02:30:33;;;;;;;37.55;27.75;;;;;;;18.98;100.00;101257.50;4927745;29;20044;-76
2023/09/12 02:33:01;;;;;;;38.85;28.60;;;;;;;18.93;100.00;101257.63;4944959;29;20519;-76
2023/09/12 02:35:29;;;;;;;42.33;29.35;;;;;;;18.91;100.00;101256.78;4945255;28;20050;-76
2023/09/12 02:37:56;;;;;;;41.53;29.92;;;;;;;18.88;100.00;101259.53;4906647;28;20422;-76
2023/09/12 02:40:24;;;;;;;42.20;29.33;;;;;;;18.84;100.00;101268.53;4946228;29;20047;-77
2023/09/12 02:42:52;;;;;;;39.35;31.02;;;;;;;18.81;100.00;101273.94;4914637;29;20061;-77
2023/09/12 02:45:19;;;;;;;39.03;30.10;;;;;;;18.79;100.00;101273.06;4917361;29;20246;-77
2023/09/12 02:47:46;;;;;;;43.50;29.33;;;;;;;18.77;100.00;101280.25;4915885;29;20430;-77
2023/09/12 02:50:14;;;;;;;45.47;31.75;;;;;;;18.74;100.00;101270.53;4943803;28;20579;-77
2023/09/12 02:52:42;;;;;;;42.22;30.48;;;;;;;18.72;100.00;101269.69;4915335;29;20055;-77
2023/09/12 02:55:09;;;;;;;41.63;31.17;;;;;;;18.70;100.00;101274.19;4899376;28;20483;-77
2023/09/12 02:57:36;;;;;;;40.78;29.73;;;;;;;18.68;100.00;101273.34;4915281;29;20051;-77
2023/09/12 03:00:07;;;;;;;45.35;31.30;;;;;;;18.65;100.00;101281.41;4934614;29;20043;-77
2023/09/12 03:02:34;;;;;;;;;;;;;;;18.62;100.00;101279.72;4960094;28;20058;-77
2023/09/12 03:05:02;;;;;;;51.33;33.83;;;;;;;18.59;100.00;101277.09;4937478;28;20293;-77
2023/09/12 03:07:30;;;;;;;47.67;31.65;;;;;;;18.58;100.00;101275.38;4946681;28;20051;-77
2023/09/12 03:09:58;;;;;;;47.50;32.58;;;;;;;18.56;100.00;101274.50;4885301;29;20532;-77
2023/09/12 03:12:25;;;;;;;42.17;31.38;;;;;;;18.54;100.00;101273.66;4914497;29;20047;-77
2023/09/12 03:14:53;;;;;;;42.13;32.50;;;;;;;18.53;100.00;101265.72;4909799;29;20051;-77
2023/09/12 03:17:20;;;;;;;41.53;31.20;;;;;;;18.50;100.00;101271.97;4922007;29;20047;-77
2023/09/12 03:19:48;;;;;;;47.80;33.00;;;;;;;18.49;100.00;101275.56;4930812;29;20054;-77
2023/09/12 03:22:15;;;;;;;49.88;34.63;;;;;;;18.48;100.00;101272.00;4912966;28;20039;-77
2023/09/12 03:24:44;;;;;;;43.40;31.73;;;;;;;18.46;100.00;101262.28;4946380;29;20059;-77
2023/09/12 03:27:12;;;;;;;45.33;31.42;;;;;;;18.44;100.00;101258.78;4904248;29;20074;-77
2023/09/12 03:29:40;;;;;;;45.97;29.33;;;;;;;18.42;100.00;101248.13;4930191;29;20051;-77
2023/09/12 03:32:07;;;;;;;45.13;32.67;;;;;;;18.41;100.00;101251.72;4915192;29;20406;-77
2023/09/12 03:34:35;;;;;;;45.03;32.15;;;;;;;18.39;100.00;101247.31;4947195;28;20053;-77
2023/09/12 03:37:02;;;;;;;41.35;29.48;;;;;;;18.36;100.00;101245.63;4911076;29;20051;-78
2023/09/12 03:39:29;;;;;;;40.25;31.05;;;;;;;18.35;100.00;101238.50;4910766;29;20048;-77
2023/09/12 03:41:57;;;;;;;41.80;30.52;;;;;;;18.34;100.00;101233.22;4889423;28;20502;-77
2023/09/12 03:44:24;;;;;;;47.33;33.38;;;;;;;18.31;100.00;101240.38;4928185;29;20047;-76
2023/09/12 03:46:52;;;;;;;65.47;38.13;;;;;;;18.28;100.00;101243.13;4918692;29;20035;-77
2023/09/12 03:49:19;;;;;;;51.17;33.78;;;;;;;18.25;100.00;101237.84;4919073;29;20062;-77
2023/09/12 03:51:47;;;;;;;51.55;33.17;;;;;;;18.22;100.00;101240.59;4930277;29;20055;-77
2023/09/12 03:54:15;;;;;;;46.22;32.40;;;;;;;18.19;100.00;101232.66;4911835;29;20077;-77
2023/09/12 03:56:42;;;;;;;48.92;31.75;;;;;;;18.16;100.00;101235.38;4886932;29;20055;-76
2023/09/12 03:59:12;;;;;;;44.78;32.30;;;;;;;18.13;100.00;101243.47;4927660;29;20058;-77
2023/09/12 04:01:40;;;;;;;51.85;34.28;;;;;;;18.11;100.00;101239.97;4941406;28;20055;-77
2023/09/12 04:04:07;;;;;;;66.20;37.97;;;;;;;18.08;100.00;101243.56;4929373;29;20058;-77
2023/09/12 04:06:35;;;;;;;50.80;32.60;;;;;;;18.02;100.00;101241.03;4932202;29;20108;-77
2023/09/12 04:09:03;;;;;;;59.92;38.83;;;;;;;18.01;100.00;101247.25;4920789;29;20047;-77
2023/09/12 04:11:30;;;;;;;60.42;35.67;;;;;;;17.98;100.00;101233.13;4931597;29;20055;-77
2023/09/12 04:14:14;;;;;;;59.08;37.53;;;;;;;17.94;100.00;101237.66;4899544;28;20379;-77
2023/09/12 04:16:41;;;;;;;62.28;36.70;;;;;;;17.91;100.00;101238.56;4931829;29;20055;-77
2023/09/12 04:19:09;;;;;;;69.35;42.22;;;;;;;17.90;100.00;101227.94;4916666;29;20055;-76
2023/09/12 04:21:37;;;;;;;51.95;34.85;;;;;;;17.89;100.00;101224.41;4900294;29;20066;-76
2023/09/12 04:24:05;;;;;;;62.58;35.40;;;;;;;17.89;100.00;101232.41;4950012;28;20042;-77
2023/09/12 04:26:33;;;;;;;56.67;36.70;;;;;;;17.88;100.00;101232.44;4922829;29;20147;-77
2023/09/12 04:29:00;;;;;;;49.15;32.53;;;;;;;17.86;100.00;101237.81;4887189;29;20078;-77
2023/09/12 04:31:28;;;;;;;52.03;33.33;;;;;;;17.85;100.00;101225.38;4946852;28;20047;-77
2023/09/12 04:33:55;;;;;;;44.50;31.50;;;;;;;17.86;100.00;101227.16;4900532;29;20512;-76
2023/09/12 04:36:22;;;;;;;51.88;35.03;;;;;;;17.87;100.00;101222.69;4959405;28;20525;-77
2023/09/12 04:38:50;;;;;;;50.75;32.13;;;;;;;17.87;100.00;101228.88;4906453;29;20501;-77
2023/09/12 04:41:17;;;;;;;50.20;32.60;;;;;;;17.86;100.00;101235.16;4933498;29;20051;-77
2023/09/12 04:43:45;;;;;;;50.33;33.72;;;;;;;17.85;100.00;101236.03;4868622;29;20043;-76
2023/09/12 04:46:13;;;;;;;48.53;33.05;;;;;;;17.85;100.00;101230.72;4930330;29;20053;-76
2023/09/12 04:48:40;;;;;;;46.58;32.10;;;;;;;17.86;100.00;101231.59;4934728;28;20055;-77
2023/09/12 04:51:08;;;;;;;48.38;33.40;;;;;;;17.86;100.00;101239.59;4962943;28;20054;-76
2023/09/12 04:53:36;;;;;;;53.28;35.40;;;;;;;17.85;100.00;101243.19;4926682;29;20553;-77
2023/09/12 04:56:06;;;;;;;64.28;35.55;;;;;;;17.83;100.00;101240.50;4918144;29;20051;-77
2023/09/12 04:58:33;;;;;;;54.63;35.50;;;;;;;17.82;100.00;101248.53;4908544;28;25170;-77
2023/09/12 05:01:02;;;;;;;54.72;34.80;;;;;;;17.81;100.00;101242.31;4928560;29;20056;-76
2023/09/12 05:03:29;;;;;;;66.50;37.30;;;;;;;17.79;100.00;101236.16;4914668;28;20051;-76
2023/09/12 05:05:58;;;;;;;55.88;35.85;;;;;;;17.79;100.00;101245.91;4929673;29;20051;-76
2023/09/12 05:08:25;;;;;;;51.35;34.30;;;;;;;17.78;100.00;101244.16;4935564;28;20054;-76
2023/09/12 05:10:53;;;;;;;57.33;34.58;;;;;;;17.77;100.00;101243.31;4910942;29;20050;-76
2023/09/12 05:13:21;;;;;;;57.10;33.20;;;;;;;17.78;100.00;101233.50;4884662;28;20551;-75
2023/09/12 05:15:48;;;;;;;55.25;33.72;;;;;;;17.77;100.00;101237.97;4937652;28;20062;-76
2023/09/12 05:18:16;;;;;;;52.33;33.05;;;;;;;17.77;100.00;101245.97;4883713;29;20047;-76
2023/09/12 05:20:43;;;;;;;50.75;32.88;;;;;;;17.76;100.00;101246.00;4911091;29;20070;-75
2023/09/12 05:23:11;;;;;;;41.17;30.13;;;;;;;17.76;100.00;101257.53;4938152;28;20051;-76
2023/09/12 05:25:38;;;;;;;45.05;31.00;;;;;;;17.74;100.00;101254.88;4932295;28;20077;-76
2023/09/12 05:28:05;;;;;;;42.15;30.70;;;;;;;17.75;100.00;101261.13;4927849;28;20043;-76
2023/09/12 05:30:33;;;;;;;48.90;32.47;;;;;;;17.76;100.00;101260.19;4869113;29;20055;-77
2023/09/12 05:33:01;;;;;;;50.25;32.45;;;;;;;17.78;100.00;101269.03;4928053;29;20066;-77
2023/09/12 05:35:29;;;;;;;50.10;33.85;;;;;;;17.79;100.00;101273.47;4912451;29;20066;-77
2023/09/12 05:37:56;;;;;;;52.33;34.30;;;;;;;17.79;100.00;101284.13;4913622;28;20046;-76
2023/09/12 05:40:24;;;;;;;53.38;34.88;;;;;;;17.81;100.00;101284.09;4946440;29;20043;-75
2023/09/12 05:42:51;;;;;;;60.85;34.72;;;;;;;17.82;100.00;101293.84;4917918;29;20078;-76
2023/09/12 05:45:19;;;;;;;54.60;34.60;;;;;;;17.82;100.00;101289.38;4885861;29;20051;-77
2023/09/12 05:47:48;;;;;;;56.90;34.72;;;;;;;17.83;100.00;101287.63;4925536;28;20051;-76
2023/09/12 05:50:15;;;;;;;44.25;31.85;;;;;;;17.83;100.00;101291.16;4917015;29;20486;-76
2023/09/12 05:52:43;;;;;;;45.72;30.48;;;;;;;17.83;100.00;101300.94;4941065;29;20073;-76
2023/09/12 05:55:12;;;;;;;46.88;30.90;;;;;;;17.83;100.00;101299.16;4915690;29;20140;-76
2023/09/12 05:57:39;;;;;;;44.35;30.88;;;;;;;17.83;100.00;101291.16;4942034;28;20506;-76
2023/09/12 06:00:11;;;;;;;58.40;32.83;;;;;;;17.81;100.00;101276.97;4880560;28;20051;-76
2023/09/12 06:02:40;;;;;;;46.03;29.50;;;;;;;17.83;100.00;101288.47;4916046;29;20055;-77
2023/09/12 06:05:08;;;;;;;49.25;29.20;;;;;;;17.85;100.00;101283.16;4947807;28;20055;-76
2023/09/12 06:07:36;;;;;;;40.60;30.00;;;;;;;17.87;100.00;101289.34;4913875;29;20525;-76
2023/09/12 06:10:06;;;;;;;42.38;28.75;;;;;;;17.87;100.00;101284.88;4933263;29;20047;-76
2023/09/12 06:12:35;;;;;;;38.28;29.30;;;;;;;17.90;100.00;101290.16;4926297;28;20047;-75
2023/09/12 06:15:04;;;;;;;46.53;29.05;;;;;;;17.93;100.00;101303.41;4921925;28;20091;-76
2023/09/12 06:17:31;;;;;;;38.47;26.88;;;;;;;17.96;100.00;101307.81;4874684;29;20052;-78
2023/09/12 06:19:59;;;;;;;34.47;27.27;;;;;;;18.00;100.00;101304.19;4926900;29;20051;-76
2023/09/12 06:22:26;;;;;;;60.15;26.42;;;;;;;18.03;100.00;101303.22;4934644;28;20047;-76
2023/09/12 06:24:54;;;;;;;44.17;26.08;;;;;;;18.06;100.00;101301.38;4926789;28;20071;-76
2023/09/12 06:27:21;;;;;;;31.95;25.17;;;;;;;18.11;100.00;101296.84;4941554;28;20501;-74
2023/09/12 06:29:49;;;;;;;30.83;24.20;;;;;;;18.17;100.00;101293.16;4934163;28;20059;-74
2023/09/12 06:32:17;;;;;;;39.60;25.33;;;;;;;18.22;100.00;101296.63;4901313;28;20394;-74
2023/09/12 06:34:45;;;;;;;41.28;27.08;;;;;;;18.28;100.00;101300.94;4942452;29;20085;-74
2023/09/12 06:37:13;;;;;;;42.67;27.40;;;;;;;18.33;100.00;101303.50;4916431;29;20048;-74
2023/09/12 06:39:40;;;;;;;43.28;27.65;;;;;;;18.34;100.00;101297.25;4958704;28;20367;-74
2023/09/12 06:42:08;;;;;;;35.35;26.35;;;;;;;18.39;100.00;101290.91;4945236;29;20556;-74
2023/09/12 06:44:36;;;;;;;38.95;27.05;;;;;;;18.44;100.00;101286.31;4935361;28;20055;-74
2023/09/12 06:47:04;;;;;;;40.67;26.45;;;;;;;18.51;100.00;101287.94;4943726;29;20054;-74
2023/09/12 06:49:32;;;;;;;39.85;27.17;;;;;;;18.59;100.00;101276.22;4897901;28;20535;-74
2023/09/12 06:52:02;;;;;;;36.78;27.58;;;;;;;18.64;100.00;101275.22;4916382;29;20047;-74
2023/09/12 06:54:29;;;;;;;41.40;26.60;;;;;;;18.70;100.00;101277.72;4929887;29;20059;-74
2023/09/12 06:56:57;;;;;;;34.03;24.90;;;;;;;18.74;100.00;101273.19;4942922;29;20393;-74
2023/09/12 06:59:24;;;;;;;38.70;26.40;;;;;;;18.71;100.00;101259.91;4905536;29;20050;-74
2023/09/12 07:01:52;;;;;;;37.58;26.42;;;;;;;18.69;100.00;101262.63;4943103;29;20509;-74
2023/09/12 07:04:19;;;;;;;33.35;25.38;;;;;;;18.66;100.00;101262.69;4884963;29;20050;-74
2023/09/12 07:06:47;;;;;;;35.47;27.17;;;;;;;18.68;100.00;101274.22;4918125;29;20047;-74
2023/09/12 07:09:14;;;;;;;36.72;26.77;;;;;;;18.73;100.00;101267.88;4925849;29;20055;-75
2023/09/12 07:11:42;;;;;;;42.47;28.40;;;;;;;18.75;100.00;101269.63;4927421;29;20047;-73
2023/09/12 07:14:09;;;;;;;37.83;27.45;;;;;;;18.78;100.00;101274.00;4952833;28;20423;-74
2023/09/12 07:16:37;;;;;;;72.50;26.67;;;;;;;18.72;100.00;101268.81;4929108;28;20051;-74
2023/09/12 07:19:05;;;;;;;50.50;26.42;;;;;;;18.68;100.00;101262.66;4902589;28;20047;-74
2023/09/12 07:21:32;;;;;;;44.53;25.65;;;;;;;18.67;100.00;101269.78;4928328;29;20059;-73
2023/09/12 07:24:00;;;;;;;42.85;25.35;;;;;;;18.69;100.00;101272.41;4905120;29;20039;-74
2023/09/12 07:26:27;;;;;;;47.10;24.52;;;;;;;18.71;100.00;101275.91;4946971;28;20047;-74
2023/09/12 07:28:55;;;;;;;55.38;27.13;;;;;;;18.69;100.00;101278.66;4934396;29;20410;-74
2023/09/12 07:31:22;;;;;;;47.15;26.95;;;;;;;18.66;100.00;101284.06;4929609;29;20054;-74
2023/09/12 07:33:49;;;;;;;39.00;24.77;;;;;;;18.61;100.00;101285.94;4942556;28;20078;-74
2023/09/12 07:36:17;;;;;;;64.15;27.55;;;;;;;18.59;100.00;101281.56;4904313;28;20051;-75
2023/09/12 07:38:45;;;;;;;34.20;24.75;;;;;;;18.61;100.00;101288.63;4936679;28;20486;-74
2023/09/12 07:41:12;;;;;;;59.28;27.67;;;;;;;18.64;100.00;101287.69;4934245;29;20498;-74
2023/09/12 07:43:40;;;;;;;46.00;25.88;;;;;;;18.66;100.00;101289.41;4931189;29;20062;-74
2023/09/12 07:46:08;;;;;;;52.85;26.73;;;;;;;18.72;100.00;101293.72;4929371;29;20056;-74
2023/09/12 07:48:35;;;;;;;51.53;29.30;;;;;;;18.78;100.00;101290.03;4966154;28;20066;-74
2023/09/12 07:51:14;;;;;;;47.42;27.73;;;;;;;18.83;100.00;101288.16;4882605;29;24103;-74
2023/09/12 07:53:43;;;;;;;52.90;28.13;;;;;;;18.94;100.00;101290.53;4935257;29;20047;-74
2023/09/12 07:56:11;;;;;;;47.72;25.75;;;;;;;19.03;100.00;101293.88;4950573;28;20043;-75
2023/09/12 07:58:38;;;;;;;43.47;26.13;;;;;;;19.14;100.00;101296.28;4949550;29;20047;-75
2023/09/12 08:01:09;;;;;;;44.75;28.80;;;;;;;19.24;100.00;101296.91;4941726;29;20054;-75
2023/09/12 08:03:39;;;;;;;41.50;25.75;;;;;;;19.31;100.00;101308.34;4949056;29;20048;-75
2023/09/12 08:06:07;;;;;;;40.95;24.77;;;;;;;19.40;100.00;101316.97;4949798;28;20043;-75
2023/09/12 08:08:34;;;;;;;42.35;26.17;;;;;;;19.42;100.00;101325.84;4899365;28;20054;-74
2023/09/12 08:11:02;;;;;;;45.40;27.88;;;;;;;19.45;100.00;101324.88;4921081;29;20801;-75
2023/09/12 08:13:30;;;;;;;42.03;27.70;;;;;;;19.48;100.00;101322.13;4943373;29;20051;-75
2023/09/12 08:15:58;;;;;;;48.08;28.10;;;;;;;19.52;100.00;101330.94;4922650;29;20874;-75
2023/09/12 08:18:29;;;;;;;49.92;28.67;;;;;;;19.52;100.00;101334.47;4950346;29;20489;-74
2023/09/12 08:20:57;;;;;;;;;;;;;;;19.52;100.00;101333.63;4946636;28;20055;-74
2023/09/12 08:23:24;;;;;;;52.10;30.08;;;;;;;19.54;100.00;101337.13;4919334;28;19923;-74
2023/09/12 08:25:52;;;;;;;51.63;30.10;;;;;;;19.59;100.00;101337.88;4868105;29;20730;-74
2023/09/12 08:28:19;;;;;;;53.13;31.60;;;;;;;19.62;100.00;101343.13;4932023;29;20052;-74
2023/09/12 08:30:47;;;;;;;51.88;29.80;;;;;;;19.68;100.00;101343.00;4896780;29;20801;-74
2023/09/12 08:33:14;;;;;;;47.25;29.58;;;;;;;19.71;100.00;101342.88;4947896;29;20508;-74
2023/09/12 08:35:42;;;;;;;49.33;31.08;;;;;;;19.70;100.00;101345.59;4947775;29;20095;-74
2023/09/12 08:38:10;;;;;;;49.50;29.23;;;;;;;19.75;100.00;101341.03;4917209;28;20051;-75
2023/09/12 08:40:37;;;;;;;52.83;30.67;;;;;;;19.81;100.00;101348.91;4942131;29;20055;-75
2023/09/12 08:43:05;;;;;;;58.50;31.40;;;;;;;19.90;100.00;101348.66;4932366;29;20047;-75
2023/09/12 08:45:32;;;;;;;54.58;33.17;;;;;;;20.04;100.00;101348.28;4915944;29;20055;-75
2023/09/12 08:48:01;;;;;;;55.83;32.58;;;;;;;20.10;100.00;101342.75;4951797;28;20039;-75
2023/09/12 08:50:32;;;;;;;49.95;30.65;;;;;;;20.08;100.00;101347.28;4929070;29;20058;-75
2023/09/12 08:53:00;;;;;;;48.42;30.83;;;;;;;20.04;100.00;101349.16;4887538;28;20055;-74
2023/09/12 08:55:35;;;;;;;52.25;31.38;;;;;;;20.02;100.00;101350.13;4947579;29;20446;-74
2023/09/12 08:58:05;;;;;;;52.33;30.25;;;;;;;20.03;100.00;101359.88;4915947;29;20058;-74
2023/09/12 09:00:33;;;;;;;52.08;31.52;;;;;;;20.01;100.00;101359.91;4948883;29;20051;-74
2023/09/12 09:03:02;;;;;;;47.25;30.75;;;;;;;19.96;100.00;101356.53;4935286;28;20048;-74
2023/09/12 09:05:31;;;;;;;46.10;28.77;;;;;;;19.94;100.00;101357.47;4931547;29;20421;-74
2023/09/12 09:07:59;;;;;;;45.65;28.98;;;;;;;19.96;100.00;101356.53;4946122;29;20051;-75
2023/09/12 09:10:32;;;;;;;44.95;29.45;;;;;;;19.97;100.00;101355.59;4881078;29;20047;-75
2023/09/12 09:13:16;;;;;;;46.92;28.92;;;;;;;19.99;100.00;101351.06;4910564;29;20051;-73
2023/09/12 09:15:43;;;;;;;45.33;28.98;;;;;;;19.97;100.00;101355.59;4945519;28;20054;-74
2023/09/12 09:18:12;;;;;;;45.35;30.30;;;;;;;19.90;100.00;101358.47;4940972;28;20066;-74
2023/09/12 09:20:40;;;;;;;44.17;28.65;;;;;;;19.91;100.00;101354.91;4913875;29;20090;-74
2023/09/12 09:23:10;;;;;;;44.38;27.85;;;;;;;19.90;100.00;101353.13;4941707;28;20044;-74
2023/09/12 09:25:43;;;;;;;45.67;29.07;;;;;;;19.96;100.00;101353.84;4892977;28;20055;-75
2023/09/12 09:28:19;;;;;;;44.47;28.90;;;;;;;20.03;100.00;101360.75;4937024;29;20282;-75
2023/09/12 09:30:48;;;;;;;48.83;29.88;;;;;;;20.08;100.00;101349.94;4916587;29;20062;-75
2023/09/12 09:33:16;;;;;;;45.92;30.10;;;;;;;20.10;100.00;101356.13;4920075;28;20058;-75
2023/09/12 09:35:46;;;;;;;44.00;29.17;;;;;;;20.16;100.00;101361.28;4928983;29;20054;-75
2023/09/12 09:38:16;;;;;;;45.72;31.20;;;;;;;20.29;100.00;101352.94;4931359;29;20066;-75
2023/09/12 09:40:46;;;;;;;47.53;29.88;;;;;;;20.38;100.00;101358.00;4880109;29;20063;-75
2023/09/12 09:43:20;;;;;;;47.67;29.80;;;;;;;20.47;100.00;101352.34;4925218;29;20059;-75
2023/09/12 09:45:48;;;;;;;48.72;29.75;;;;;;;20.59;100.00;101352.00;4932269;29;20055;-74
2023/09/12 09:48:24;;;;;;;43.60;29.98;;;;;;;20.73;100.00;101353.41;4948664;29;20387;-75
2023/09/12 09:50:52;;;;;;;42.85;29.17;;;;;;;20.79;100.00;101354.09;4936737;29;20084;-75
2023/09/12 09:53:27;;;;;;;41.13;27.63;;;;;;;20.87;100.00;101353.88;4962496;28;20047;-74
2023/09/12 09:56:14;;;;;;;40.28;28.17;;;;;;;20.92;100.00;101351.91;4898623;28;20063;-74
2023/09/12 09:58:52;;;;;;;43.83;29.30;;;;;;;20.93;100.00;101350.13;4928795;28;20043;-74
2023/09/12 10:01:21;;;;;;;41.72;28.58;;;;;;;20.89;100.00;101351.09;4937927;28;20054;-74
2023/09/12 10:03:50;;;;;;;43.95;30.20;;;;;;;20.89;100.00;101356.47;4939653;28;20046;-74
2023/09/12 10:06:19;;;;;;;39.92;27.45;;;;;;;20.93;100.00;101352.78;4942908;28;20047;-74
2023/09/12 10:08:51;;;;;;;43.92;31.60;;;;;;;21.01;100.00;101348.91;4934301;28;20047;-74
2023/09/12 10:11:22;;;;;;;40.17;26.38;;;;;;;21.10;100.00;101349.56;4915080;28;20673;-74
2023/09/12 10:13:53;;;;;;;40.22;27.58;;;;;;;21.18;100.00;101339.47;4936918;28;20070;-74
2023/09/12 10:16:29;;;;;;;37.97;25.33;;;;;;;21.29;100.00;101345.34;4937447;28;20051;-74
2023/09/12 10:19:13;;;;;;;38.00;27.42;;;;;;;21.37;100.00;101335.22;4955576;28;20050;-74
2023/09/12 10:21:49;;;;;;;37.03;25.42;;;;;;;21.50;100.00;101341.09;4905924;28;20053;-74
2023/09/12 10:24:17;;;;;;;35.63;25.67;;;;;;;21.61;100.00;101335.34;4934685;29;20631;-74
2023/09/12 10:26:45;;;;;;;40.92;27.10;;;;;;;21.73;100.00;101336.72;4867956;28;22214;-73
2023/09/12 10:29:15;;;;;;;36.78;24.77;;;;;;;21.81;100.00;101340.00;4925687;29;20055;-74
2023/09/12 10:31:43;;;;;;;36.55;26.00;;;;;;;21.79;100.00;101340.03;4899493;29;20074;-74
2023/09/12 10:34:13;;;;;;;39.03;25.95;;;;;;;21.79;100.00;101341.84;4944213;29;20047;-75
2023/09/12 10:36:45;;;;;;;35.72;25.73;;;;;;;21.76;100.00;101342.84;4920576;29;20074;-74
2023/09/12 10:39:14;;;;;;;32.25;24.83;;;;;;;21.75;100.00;101337.53;4948235;28;20044;-74
2023/09/12 10:41:42;;;;;;;32.33;24.03;;;;;;;21.76;100.00;101340.16;4909704;29;20043;-74
2023/09/12 10:44:14;;;;;;;32.28;22.88;;;;;;;21.79;100.00;101345.41;4870618;29;20397;-74
2023/09/12 10:46:44;;;;;;;37.67;24.02;;;;;;;21.80;100.00;101343.63;4919974;29;20055;-74
2023/09/12 10:49:13;;;;;;;33.40;23.10;;;;;;;21.85;100.00;101338.06;4926137;29;20461;-74
2023/09/12 10:51:43;;;;;;;32.65;23.95;;;;;;;21.93;100.00;101336.00;4893178;29;20141;-74
2023/09/12 10:54:15;;;;;;;34.20;24.85;;;;;;;22.03;100.00;101340.09;4944725;29;20051;-74
2023/09/12 10:56:44;;;;;;;33.95;24.60;;;;;;;22.10;100.00;101336.25;4901823;29;20036;-74
2023/09/12 10:59:14;;;;;;;35.03;26.63;;;;;;;22.14;100.00;101327.16;4882406;29;20055;-74
2023/09/12 11:01:45;;;;;;;34.92;25.45;;;;;;;22.20;100.00;101332.28;4905267;29;20046;-73
2023/09/12 11:04:19;;;;;;;35.50;25.52;;;;;;;22.31;100.00;101333.75;4921294;29;20048;-74
2023/09/12 11:06:49;;;;;;;41.97;26.83;;;;;;;22.34;100.00;101331.81;4924181;29;20058;-74
2023/09/12 11:09:19;;;;;;;37.22;27.63;;;;;;;22.43;100.00;101335.94;4925849;29;20710;-74
2023/09/12 11:11:48;;;;;;;33.13;26.08;;;;;;;22.45;100.00;101343.94;4919840;29;20564;-74
2023/09/12 11:14:19;;;;;;;36.28;26.85;;;;;;;22.53;100.00;101339.13;4876548;29;20051;-74
2023/09/12 11:17:05;;;;;;;34.65;24.63;;;;;;;22.62;100.00;101332.53;4894682;29;20056;-74
2023/09/12 11:19:52;;;;;;;31.80;24.58;;;;;;;22.63;100.00;101332.47;4911493;29;20153;-74
2023/09/12 11:22:31;;;;;;;30.55;23.02;;;;;;;22.65;100.00;101338.66;4916984;29;20064;-74
2023/09/12 11:25:02;;;;;;;27.77;21.13;;;;;;;22.69;100.00;101331.38;4937357;29;20047;-74
2023/09/12 11:27:53;;;;;;;24.88;19.65;;;;;;;22.73;100.00;101333.84;4923909;29;20040;-74
2023/09/12 11:30:24;;;;;;;26.25;20.02;;;;;;;22.79;100.00;101327.38;4876653;28;20435;-74
2023/09/12 11:32:54;;;;;;;26.33;21.58;;;;;;;22.85;100.00;101324.41;4935676;28;20055;-74
2023/09/12 11:35:23;;;;;;;25.50;19.75;;;;;;;22.91;100.00;101334.03;4955037;28;20047;-74